Loose Creek, Missouri
Current Conditions -  °F | °C
As of 10:53 PM on Wednesday 26 Nov 2014 (Local Time) from KJEF Reporting Station
Overcast Overcast  
Wind Chill: 25°   Ceiling: 1300
Heat Index: 34°   Visibility: 8mi
Dew Point: 29°   Wind: 13mph
Humidity: 82%   Direction: 300°WNW
Pressure: 30.26"   Gusts: 22mph
Location:  38.51°N, 91.96°W
Report Text: KJEF 270453Z AUTO 30011G19KT 8SM OVC013 01/M02 A3026 RMK AO2 SLP243 T00111017 $
Loading
Personal Weather Stations






























Interactive Weather Map New forecast layout! Learn more

10-Day Weather Forecast

Advertisements
Track Severe Weather on mobile